createdAt,value
2023-05-24T00:00:12.730Z,82.97
2023-05-24T00:02:42.150Z,83.74
2023-05-24T00:05:09.970Z,83.74
2023-05-24T00:07:37.552Z,83.48
2023-05-24T00:10:05.624Z,83.71
2023-05-24T00:12:32.890Z,82.71
2023-05-24T00:14:59.764Z,82.57
2023-05-24T00:17:26.511Z,82.70
2023-05-24T00:19:53.346Z,83.78
2023-05-24T00:22:21.084Z,84.98
2023-05-24T00:24:48.385Z,87.67
2023-05-24T00:27:15.531Z,88.24
2023-05-24T00:29:42.059Z,88.68
2023-05-24T00:32:08.718Z,89.53
2023-05-24T00:34:35.629Z,90.52
2023-05-24T00:37:02.085Z,92.74
2023-05-24T00:39:28.520Z,93.39
2023-05-24T00:41:54.964Z,94.48
2023-05-24T00:44:21.409Z,95.06
2023-05-24T00:46:48.154Z,96.19
2023-05-24T00:49:14.623Z,96.44
2023-05-24T00:51:41.095Z,96.28
2023-05-24T00:54:07.851Z,96.03
2023-05-24T00:56:34.541Z,95.42
2023-05-24T00:59:01.631Z,95.82
2023-05-24T01:01:30.981Z,96.23
2023-05-24T01:03:59.436Z,96.35
2023-05-24T01:06:27.177Z,96.65
2023-05-24T01:09:03.087Z,97.28
2023-05-24T01:11:40.041Z,98.29
2023-05-24T01:14:14.471Z,98.29
2023-05-24T01:16:52.861Z,98.75
2023-05-24T01:19:43.293Z,98.70
2023-05-24T01:22:36.375Z,99.41
2023-05-24T01:25:27.934Z,100.00
2023-05-24T01:27:54.854Z,100.00
2023-05-24T01:30:21.327Z,100.00
2023-05-24T01:32:48.109Z,100.00
2023-05-24T01:35:14.619Z,100.00
2023-05-24T01:37:41.086Z,100.00
2023-05-24T01:40:08.463Z,100.00
2023-05-24T01:42:49.190Z,100.00
2023-05-24T01:45:30.850Z,100.00
2023-05-24T01:48:00.669Z,100.00
2023-05-24T01:50:39.108Z,100.00
2023-05-24T01:53:09.756Z,100.00
2023-05-24T01:55:37.483Z,100.00
2023-05-24T01:58:05.473Z,100.00
2023-05-24T02:00:33.051Z,100.00
2023-05-24T02:02:59.735Z,100.00
2023-05-24T02:05:26.232Z,100.00
2023-05-24T02:07:53.180Z,100.00
2023-05-24T02:10:19.718Z,100.00
2023-05-24T02:12:46.204Z,100.00
2023-05-24T02:15:14.806Z,100.00
2023-05-24T02:17:42.873Z,100.00
2023-05-24T02:20:10.798Z,100.00
2023-05-24T02:22:37.362Z,100.00
2023-05-24T02:25:04.043Z,100.00
2023-05-24T02:27:30.691Z,100.00
2023-05-24T02:29:57.434Z,100.00
2023-05-24T02:32:24.052Z,100.00
2023-05-24T02:34:50.566Z,100.00
2023-05-24T02:37:17.037Z,100.00
2023-05-24T02:39:43.553Z,100.00
2023-05-24T02:42:11.356Z,100.00
2023-05-24T02:44:37.865Z,100.00
2023-05-24T02:47:04.558Z,100.00
2023-05-24T02:49:31.154Z,100.00
2023-05-24T02:51:57.592Z,100.00
2023-05-24T02:54:24.042Z,100.00
2023-05-24T02:56:50.743Z,100.00
2023-05-24T02:59:17.576Z,100.00
2023-05-24T03:01:44.296Z,100.00
2023-05-24T03:04:10.990Z,100.00
2023-05-24T03:06:37.979Z,100.00
2023-05-24T03:09:04.577Z,100.00
2023-05-24T03:11:31.035Z,100.00
2023-05-24T03:13:57.477Z,100.00
2023-05-24T03:16:25.361Z,100.00
2023-05-24T03:18:55.160Z,100.00
2023-05-24T03:21:23.376Z,100.00
2023-05-24T03:23:50.042Z,100.00
2023-05-24T03:26:18.627Z,100.00
2023-05-24T03:28:45.368Z,100.00
2023-05-24T03:31:12.450Z,100.00
2023-05-24T03:33:38.967Z,100.00
2023-05-24T03:36:06.709Z,100.00
2023-05-24T03:38:33.750Z,100.00
2023-05-24T03:41:00.547Z,100.00
2023-05-24T03:43:27.055Z,100.00
2023-05-24T03:45:53.607Z,100.00
2023-05-24T03:48:20.995Z,100.00
2023-05-24T03:50:47.832Z,100.00
2023-05-24T03:53:14.326Z,100.00
2023-05-24T03:55:40.757Z,100.00
2023-05-24T03:58:07.193Z,100.00
2023-05-24T04:00:33.660Z,100.00
2023-05-24T04:03:01.665Z,100.00
2023-05-24T04:05:29.839Z,100.00
2023-05-24T04:07:56.570Z,100.00
2023-05-24T04:10:23.096Z,100.00
2023-05-24T04:12:49.593Z,100.00
2023-05-24T04:15:16.103Z,100.00
2023-05-24T04:17:43.835Z,100.00
2023-05-24T04:20:11.440Z,100.00
2023-05-24T04:22:38.150Z,100.00
2023-05-24T04:25:05.569Z,100.00
2023-05-24T04:27:32.435Z,100.00
2023-05-24T04:29:59.141Z,100.00
2023-05-24T04:32:26.334Z,100.00
2023-05-24T04:34:53.958Z,100.00
2023-05-24T04:37:20.718Z,100.00
2023-05-24T04:39:47.317Z,100.00
2023-05-24T04:42:13.933Z,100.00
2023-05-24T04:44:40.974Z,100.00
2023-05-24T04:47:08.819Z,100.00
2023-05-24T04:49:35.305Z,100.00
2023-05-24T04:52:01.787Z,100.00
2023-05-24T04:54:28.262Z,100.00
2023-05-24T04:56:54.733Z,100.00
2023-05-24T04:59:21.175Z,100.00
2023-05-24T05:01:48.269Z,100.00
2023-05-24T05:04:14.872Z,100.00
2023-05-24T05:06:43.336Z,100.00
2023-05-24T05:09:10.468Z,100.00
2023-05-24T05:11:37.096Z,100.00
2023-05-24T05:14:03.743Z,100.00
2023-05-24T05:16:30.503Z,100.00
2023-05-24T05:18:56.999Z,100.00
2023-05-24T05:21:23.463Z,100.00
2023-05-24T05:23:49.994Z,100.00
2023-05-24T05:26:16.456Z,100.00
2023-05-24T05:28:42.951Z,100.00
2023-05-24T05:31:09.418Z,100.00
2023-05-24T05:33:36.052Z,100.00
2023-05-24T05:36:02.833Z,100.00
2023-05-24T05:38:29.300Z,100.00
2023-05-24T05:40:55.827Z,100.00
2023-05-24T05:43:22.255Z,100.00
2023-05-24T05:45:48.721Z,100.00
2023-05-24T05:48:15.159Z,100.00
2023-05-24T05:50:41.805Z,100.00
2023-05-24T05:53:08.513Z,100.00
2023-05-24T05:55:35.009Z,100.00
2023-05-24T05:58:01.581Z,100.00
2023-05-24T06:00:28.098Z,100.00
2023-05-24T06:02:54.696Z,100.00
2023-05-24T06:05:21.429Z,100.00
2023-05-24T06:07:47.880Z,100.00
2023-05-24T06:10:14.354Z,100.00
2023-05-24T06:12:40.797Z,100.00
2023-05-24T06:15:08.118Z,100.00
2023-05-24T06:17:35.513Z,100.00
2023-05-24T06:20:09.574Z,100.00
2023-05-24T06:22:36.619Z,100.00
2023-05-24T06:25:04.480Z,100.00
2023-05-24T06:27:30.971Z,100.00
2023-05-24T06:29:57.448Z,100.00
2023-05-24T06:32:23.933Z,100.00
2023-05-24T06:34:51.606Z,100.00
2023-05-24T06:37:18.132Z,100.00
2023-05-24T06:39:44.672Z,100.00
2023-05-24T06:42:11.163Z,100.00
2023-05-24T06:44:37.659Z,100.00
2023-05-24T06:47:05.721Z,100.00
2023-05-24T06:49:32.450Z,100.00
2023-05-24T06:51:58.961Z,100.00
2023-05-24T06:54:25.666Z,100.00
2023-05-24T06:56:52.159Z,100.00
2023-05-24T06:59:18.619Z,100.00
2023-05-24T07:01:45.195Z,100.00
2023-05-24T07:04:11.787Z,100.00
2023-05-24T07:06:39.323Z,100.00
2023-05-24T07:09:05.849Z,100.00
2023-05-24T07:11:32.504Z,100.00
2023-05-24T07:13:58.974Z,100.00
2023-05-24T07:16:25.593Z,100.00
2023-05-24T07:18:52.070Z,100.00
2023-05-24T07:21:18.534Z,100.00
2023-05-24T07:23:44.976Z,100.00
2023-05-24T07:26:12.774Z,100.00
2023-05-24T07:28:40.475Z,100.00
2023-05-24T07:31:09.875Z,100.00
2023-05-24T07:33:37.740Z,100.00
2023-05-24T07:36:05.987Z,100.00
2023-05-24T07:38:32.934Z,100.00
2023-05-24T07:41:00.857Z,100.00
2023-05-24T07:43:27.512Z,100.00
2023-05-24T07:45:54.156Z,100.00
2023-05-24T07:48:21.512Z,100.00
2023-05-24T07:50:49.853Z,100.00
2023-05-24T07:53:16.424Z,100.00
2023-05-24T07:55:44.566Z,100.00
2023-05-24T07:58:11.495Z,100.00
2023-05-24T08:00:38.178Z,98.94
2023-05-24T08:03:07.545Z,100.00
2023-05-24T08:05:34.115Z,99.35
2023-05-24T08:08:00.591Z,98.21
2023-05-24T08:10:27.537Z,96.50
2023-05-24T08:12:56.060Z,98.37
2023-05-24T08:15:22.663Z,96.14
2023-05-24T08:17:49.297Z,92.77
2023-05-24T08:20:16.744Z,92.00
2023-05-24T08:22:43.721Z,91.13
2023-05-24T08:25:11.544Z,89.03
2023-05-24T08:27:38.290Z,87.65
2023-05-24T08:30:05.852Z,88.06
2023-05-24T08:32:32.766Z,88.35
2023-05-24T08:35:14.841Z,88.54
2023-05-24T08:37:46.058Z,88.27
2023-05-24T08:40:12.794Z,87.77
2023-05-24T08:42:39.788Z,87.67
2023-05-24T08:45:11.550Z,89.46
2023-05-24T08:47:38.458Z,90.08
2023-05-24T08:50:06.249Z,89.64
2023-05-24T08:52:32.843Z,87.96
2023-05-24T08:54:59.992Z,88.04
2023-05-24T08:57:27.455Z,87.10
2023-05-24T08:59:57.112Z,86.44
2023-05-24T09:02:24.171Z,84.12
2023-05-24T09:04:52.535Z,84.01
2023-05-24T09:07:23.517Z,81.72
2023-05-24T09:10:02.188Z,82.17
2023-05-24T09:12:37.360Z,79.85
2023-05-24T09:15:06.126Z,79.44
2023-05-24T09:17:33.900Z,77.88
2023-05-24T09:20:00.844Z,78.31
2023-05-24T09:22:28.413Z,79.39
2023-05-24T09:24:59.703Z,77.94
2023-05-24T09:27:26.509Z,79.85
2023-05-24T09:29:53.683Z,79.33
2023-05-24T09:32:24.074Z,79.73
2023-05-24T09:34:54.536Z,78.08
2023-05-24T09:37:28.848Z,78.51
2023-05-24T09:39:58.361Z,79.59
2023-05-24T09:42:27.142Z,78.36
2023-05-24T09:45:12.276Z,77.45
2023-05-24T09:47:40.997Z,76.64
2023-05-24T09:50:19.695Z,75.34
2023-05-24T09:52:46.174Z,74.41
2023-05-24T09:55:20.226Z,74.36
2023-05-24T09:57:53.144Z,73.48
2023-05-24T10:00:25.254Z,75.01
2023-05-24T10:03:02.992Z,75.23
2023-05-24T10:05:30.217Z,75.76
2023-05-24T10:08:00.990Z,74.54
2023-05-24T10:10:31.941Z,75.24
2023-05-24T10:13:02.183Z,75.35
2023-05-24T10:15:29.358Z,75.58
2023-05-24T10:17:56.606Z,75.73
2023-05-24T10:20:26.787Z,77.15
2023-05-24T10:23:03.259Z,76.85
2023-05-24T10:25:30.032Z,76.65
2023-05-24T10:28:04.464Z,77.75
2023-05-24T10:30:37.601Z,76.32
2023-05-24T10:33:07.905Z,76.62
2023-05-24T10:35:37.994Z,77.34
2023-05-24T10:38:08.009Z,76.46
2023-05-24T10:40:34.672Z,76.86
2023-05-24T10:43:04.976Z,75.41
2023-05-24T10:45:33.513Z,73.52
2023-05-24T10:48:29.202Z,74.26
2023-05-24T10:50:56.156Z,74.27
2023-05-24T10:53:23.622Z,74.36
2023-05-24T10:56:04.147Z,73.98
2023-05-24T10:58:33.574Z,73.29
2023-05-24T11:01:00.036Z,73.93
2023-05-24T11:03:33.026Z,73.40
2023-05-24T11:05:59.917Z,73.79
2023-05-24T11:08:33.107Z,72.48
2023-05-24T11:11:23.199Z,72.68
2023-05-24T11:13:56.009Z,74.43
2023-05-24T11:16:40.145Z,75.35
2023-05-24T11:19:16.625Z,74.52
2023-05-24T11:21:48.621Z,75.16
2023-05-24T11:24:17.628Z,75.76
2023-05-24T11:26:44.768Z,76.76
2023-05-24T11:29:17.449Z,77.71
2023-05-24T11:31:54.566Z,78.93
2023-05-24T11:34:21.586Z,78.55
2023-05-24T11:36:50.138Z,78.56
2023-05-24T11:39:16.814Z,78.75
2023-05-24T11:41:43.648Z,79.20
2023-05-24T11:44:11.561Z,79.39
2023-05-24T11:46:43.183Z,78.47
2023-05-24T11:49:13.448Z,77.81
2023-05-24T11:51:40.293Z,79.27
2023-05-24T11:54:06.756Z,78.47
2023-05-24T11:56:34.162Z,78.65
2023-05-24T11:59:09.224Z,78.96
2023-05-24T12:01:35.712Z,77.54
2023-05-24T12:04:02.292Z,77.93
2023-05-24T12:06:42.772Z,77.67
2023-05-24T12:09:10.799Z,77.50
2023-05-24T12:11:42.153Z,76.72
2023-05-24T12:14:12.956Z,78.02
2023-05-24T12:16:39.870Z,77.20
2023-05-24T12:19:13.989Z,76.32
2023-05-24T12:21:48.051Z,74.42
2023-05-24T12:24:16.235Z,73.86
2023-05-24T12:26:44.612Z,72.59
2023-05-24T12:29:12.189Z,72.35
2023-05-24T12:31:48.007Z,72.77
2023-05-24T12:34:21.022Z,71.47
2023-05-24T12:36:48.087Z,72.51
2023-05-24T12:39:33.928Z,72.01
2023-05-24T12:42:03.732Z,73.26
2023-05-24T12:44:37.560Z,74.27
2023-05-24T12:47:06.730Z,72.68
2023-05-24T12:49:33.741Z,72.09
2023-05-24T12:52:01.831Z,73.37
2023-05-24T12:54:28.794Z,74.61
2023-05-24T12:56:57.255Z,73.98
2023-05-24T12:59:24.539Z,74.57
2023-05-24T13:01:51.919Z,76.22
2023-05-24T13:04:21.014Z,77.89
2023-05-24T13:06:50.701Z,77.15
2023-05-24T13:09:18.970Z,77.21
2023-05-24T13:11:47.028Z,77.27
2023-05-24T13:14:15.336Z,76.61
2023-05-24T13:16:42.085Z,77.04
2023-05-24T13:19:08.566Z,76.52
2023-05-24T13:21:35.619Z,75.96
2023-05-24T13:24:02.114Z,75.38
2023-05-24T13:26:28.858Z,73.33
2023-05-24T13:31:25.425Z,70.40
2023-05-24T13:33:52.055Z,69.68
2023-05-24T13:36:19.054Z,69.77
2023-05-24T13:38:45.581Z,70.25
2023-05-24T13:41:12.482Z,69.25
2023-05-24T13:43:39.045Z,67.90
2023-05-24T13:46:05.571Z,69.55
2023-05-24T13:48:32.282Z,70.54
2023-05-24T13:50:58.871Z,70.84
2023-05-24T13:53:26.231Z,70.52
2023-05-24T13:55:52.679Z,69.70
2023-05-24T13:58:19.368Z,70.54
2023-05-24T14:00:45.885Z,72.08
2023-05-24T14:03:13.096Z,72.80
2023-05-24T14:05:40.909Z,72.28
2023-05-24T14:08:07.584Z,72.08
2023-05-24T14:10:37.323Z,75.15
2023-05-24T14:15:37.880Z,75.83
2023-05-24T14:18:07.813Z,76.10
2023-05-24T14:20:37.723Z,74.85
2023-05-24T14:23:04.640Z,74.70
2023-05-24T14:25:31.904Z,73.97
2023-05-24T14:27:58.996Z,74.85
2023-05-24T14:30:26.574Z,74.68
2023-05-24T14:32:53.081Z,75.89
2023-05-24T14:35:19.595Z,76.43
2023-05-24T14:37:46.049Z,74.78
2023-05-24T14:40:13.148Z,77.88
2023-05-24T14:42:39.624Z,76.71
2023-05-24T14:45:06.507Z,75.08
2023-05-24T14:47:33.076Z,72.13
2023-05-24T14:49:59.616Z,69.81
2023-05-24T14:52:26.204Z,68.59
2023-05-24T14:54:52.691Z,69.17
2023-05-24T14:57:19.153Z,67.14
2023-05-24T14:59:45.810Z,66.63
2023-05-24T15:02:12.506Z,68.21
2023-05-24T15:04:38.986Z,69.81
2023-05-24T15:07:05.633Z,69.07
2023-05-24T15:09:32.261Z,68.96
2023-05-24T15:11:58.797Z,68.14
2023-05-24T15:14:25.498Z,66.78
2023-05-24T15:16:52.003Z,68.17
2023-05-24T15:19:18.484Z,68.31
2023-05-24T15:21:44.954Z,67.80
2023-05-24T15:24:13.116Z,67.31
2023-05-24T15:26:39.653Z,67.99
2023-05-24T15:29:06.586Z,69.63
2023-05-24T15:31:33.639Z,69.86
2023-05-24T15:34:00.170Z,70.88
2023-05-24T15:36:26.650Z,69.57
2023-05-24T15:38:53.591Z,69.33
2023-05-24T15:41:20.208Z,69.68
2023-05-24T15:43:46.707Z,70.62
2023-05-24T15:46:13.201Z,72.14
2023-05-24T15:48:39.648Z,71.50
2023-05-24T15:51:58.223Z,71.14
2023-05-24T15:53:54.065Z,71.15
2023-05-24T15:56:22.014Z,71.74
2023-05-24T15:58:48.470Z,73.60
2023-05-24T16:01:15.079Z,72.77
2023-05-24T16:03:41.583Z,71.54
2023-05-24T16:06:08.149Z,70.16
2023-05-24T16:08:34.638Z,70.08
2023-05-24T16:11:03.543Z,69.91
2023-05-24T16:13:30.258Z,69.46
2023-05-24T16:15:56.709Z,69.21
2023-05-24T16:18:23.625Z,69.42
2023-05-24T16:20:51.090Z,70.08
2023-05-24T16:23:17.914Z,70.26
2023-05-24T16:25:46.129Z,69.67
2023-05-24T16:28:12.737Z,70.41
2023-05-24T16:30:39.247Z,71.85
2023-05-24T16:33:05.878Z,72.22
2023-05-24T16:35:32.462Z,71.90
2023-05-24T16:37:58.915Z,72.82
2023-05-24T16:40:25.514Z,72.62
2023-05-24T16:42:53.612Z,72.14
2023-05-24T16:45:20.276Z,71.24
2023-05-24T16:47:46.789Z,71.03
2023-05-24T16:50:15.952Z,70.79
2023-05-24T16:52:42.876Z,70.02
2023-05-24T16:55:10.623Z,71.28
2023-05-24T16:57:37.543Z,71.50
2023-05-24T17:00:05.234Z,71.54
2023-05-24T17:02:31.831Z,71.00
2023-05-24T17:04:58.368Z,69.94
2023-05-24T17:07:24.897Z,70.14
2023-05-24T17:09:51.735Z,70.79
2023-05-24T17:12:18.713Z,70.13
2023-05-24T17:14:45.197Z,70.56
2023-05-24T17:17:12.042Z,69.65
2023-05-24T17:19:38.589Z,70.33
2023-05-24T17:22:06.028Z,70.01
2023-05-24T17:24:32.481Z,70.51
2023-05-24T17:26:59.215Z,70.03
2023-05-24T17:29:26.656Z,70.21
2023-05-24T17:31:53.151Z,70.01
2023-05-24T17:34:19.636Z,69.55
2023-05-24T17:36:46.080Z,69.94
2023-05-24T17:39:12.548Z,69.57
2023-05-24T17:41:39.062Z,69.97
2023-05-24T17:44:05.561Z,70.26
2023-05-24T17:46:34.346Z,70.46
2023-05-24T17:49:02.761Z,71.26
2023-05-24T17:51:29.233Z,72.77
2023-05-24T17:53:55.844Z,72.92
2023-05-24T17:56:23.259Z,72.80
2023-05-24T17:58:50.532Z,74.10
2023-05-24T18:01:17.409Z,74.98
2023-05-24T18:03:43.999Z,77.36
2023-05-24T18:06:10.975Z,76.85
2023-05-24T18:08:40.888Z,78.06
2023-05-24T18:11:11.302Z,80.27
2023-05-24T18:13:39.012Z,82.87
2023-05-24T18:16:06.556Z,83.62
2023-05-24T18:18:33.206Z,85.15
2023-05-24T18:20:59.750Z,86.53
2023-05-24T18:23:26.267Z,87.21
2023-05-24T18:26:00.787Z,88.18
2023-05-24T18:28:28.813Z,89.01
2023-05-24T18:30:55.327Z,88.33
2023-05-24T18:33:22.035Z,87.44
2023-05-24T18:35:48.590Z,87.00
2023-05-24T18:38:15.042Z,86.71
2023-05-24T18:40:41.528Z,86.80
2023-05-24T18:43:08.029Z,87.31
2023-05-24T18:45:34.634Z,87.27
2023-05-24T18:48:01.280Z,86.31
2023-05-24T18:50:27.972Z,87.01
2023-05-24T18:52:54.448Z,86.40
2023-05-24T18:55:20.913Z,87.10
2023-05-24T18:57:47.836Z,88.92
2023-05-24T19:00:14.473Z,88.64
2023-05-24T19:02:41.096Z,87.94
2023-05-24T19:05:08.319Z,87.83
2023-05-24T19:07:35.698Z,89.11
2023-05-24T19:10:02.586Z,90.19
2023-05-24T19:12:29.146Z,90.10
2023-05-24T19:14:55.708Z,89.75
2023-05-24T19:17:23.984Z,90.04
2023-05-24T19:19:50.729Z,90.80
2023-05-24T19:22:17.346Z,92.37
2023-05-24T19:24:44.062Z,92.25
2023-05-24T19:27:10.538Z,92.56
2023-05-24T19:29:37.218Z,93.08
2023-05-24T19:32:03.919Z,92.97
2023-05-24T19:34:31.963Z,93.23
2023-05-24T19:36:58.504Z,93.62
2023-05-24T19:39:25.235Z,94.25
2023-05-24T19:41:52.491Z,95.05
2023-05-24T19:44:19.167Z,95.94
2023-05-24T19:46:45.674Z,96.08
2023-05-24T19:49:12.286Z,95.88
2023-05-24T19:51:38.878Z,97.23
2023-05-24T19:54:05.982Z,99.20
2023-05-24T19:56:32.578Z,99.50
2023-05-24T19:58:59.024Z,100.00
2023-05-24T20:01:25.718Z,99.30
2023-05-24T20:03:52.360Z,98.65
2023-05-24T20:06:19.208Z,98.54
2023-05-24T20:08:45.752Z,99.27
2023-05-24T20:11:14.160Z,99.42
2023-05-24T20:13:40.843Z,99.28
2023-05-24T20:16:07.425Z,100.00
2023-05-24T20:18:37.112Z,100.00
2023-05-24T20:21:03.690Z,100.00
2023-05-24T20:23:30.848Z,100.00
2023-05-24T20:25:57.625Z,100.00
2023-05-24T20:28:30.815Z,100.00
2023-05-24T20:30:58.630Z,100.00
2023-05-24T20:33:25.120Z,100.00
2023-05-24T20:35:53.107Z,100.00
2023-05-24T20:38:19.865Z,100.00
2023-05-24T20:40:46.532Z,100.00
2023-05-24T20:43:13.108Z,100.00
2023-05-24T20:45:39.681Z,100.00
2023-05-24T20:48:06.506Z,100.00
2023-05-24T20:50:33.041Z,100.00
2023-05-24T20:52:59.567Z,100.00
2023-05-24T20:55:27.005Z,100.00
2023-05-24T20:57:53.827Z,100.00
2023-05-24T21:00:20.355Z,100.00
2023-05-24T21:02:46.963Z,100.00
2023-05-24T21:05:13.554Z,100.00
2023-05-24T21:07:40.115Z,100.00
2023-05-24T21:10:07.631Z,100.00
2023-05-24T21:12:34.138Z,100.00
2023-05-24T21:15:00.640Z,100.00
2023-05-24T21:17:27.230Z,100.00
2023-05-24T21:19:53.740Z,100.00
2023-05-24T21:22:20.290Z,100.00
2023-05-24T21:24:46.754Z,100.00
2023-05-24T21:27:13.274Z,100.00
2023-05-24T21:29:41.648Z,100.00
2023-05-24T21:32:08.105Z,100.00
2023-05-24T21:34:35.737Z,100.00
2023-05-24T21:37:02.637Z,100.00
2023-05-24T21:39:29.343Z,100.00
2023-05-24T21:41:55.881Z,100.00
2023-05-24T21:44:22.359Z,100.00
2023-05-24T21:46:48.913Z,100.00
2023-05-24T21:49:17.209Z,100.00
2023-05-24T21:51:43.700Z,100.00
2023-05-24T21:54:10.159Z,100.00
2023-05-24T21:56:37.227Z,100.00
2023-05-24T21:59:03.688Z,100.00
2023-05-24T22:01:30.339Z,100.00
2023-05-24T22:03:56.948Z,100.00
2023-05-24T22:06:23.675Z,100.00
2023-05-24T22:08:50.131Z,100.00
2023-05-24T22:11:16.552Z,100.00
2023-05-24T22:13:42.996Z,100.00
2023-05-24T22:16:09.510Z,100.00
2023-05-24T22:18:35.994Z,100.00
2023-05-24T22:21:06.170Z,100.00
2023-05-24T22:23:33.306Z,100.00
2023-05-24T22:25:59.838Z,100.00
2023-05-24T22:28:26.296Z,100.00
2023-05-24T22:30:52.714Z,100.00
2023-05-24T22:33:19.971Z,100.00
2023-05-24T22:35:46.556Z,100.00
2023-05-24T22:38:13.056Z,100.00
2023-05-24T22:40:42.032Z,100.00
2023-05-24T22:43:08.616Z,100.00
2023-05-24T22:45:35.101Z,100.00
2023-05-24T22:48:03.189Z,100.00
2023-05-24T22:50:29.810Z,100.00
2023-05-24T22:52:56.655Z,100.00
2023-05-24T22:55:23.849Z,100.00
2023-05-24T22:57:50.355Z,100.00
2023-05-24T23:00:17.131Z,100.00
2023-05-24T23:02:43.594Z,100.00
2023-05-24T23:05:11.287Z,100.00
2023-05-24T23:07:38.008Z,100.00
2023-05-24T23:10:04.803Z,100.00
2023-05-24T23:12:31.351Z,100.00
2023-05-24T23:14:58.398Z,100.00
2023-05-24T23:17:25.170Z,100.00
2023-05-24T23:19:51.675Z,100.00
2023-05-24T23:22:18.486Z,100.00
2023-05-24T23:24:46.458Z,100.00
2023-05-24T23:27:12.931Z,100.00
2023-05-24T23:29:39.431Z,100.00
2023-05-24T23:32:07.363Z,100.00
2023-05-24T23:34:33.960Z,100.00
2023-05-24T23:37:04.283Z,100.00
2023-05-24T23:39:30.861Z,100.00
2023-05-24T23:41:57.313Z,100.00
2023-05-24T23:44:24.022Z,100.00
2023-05-24T23:46:51.225Z,100.00
2023-05-24T23:49:18.008Z,100.00
2023-05-24T23:51:44.498Z,100.00
2023-05-24T23:54:11.299Z,100.00
2023-05-24T23:56:40.862Z,100.00
2023-05-24T23:59:07.580Z,100.00
